KOGB

Orangeburg Municipal Airport

Orangeburg, South Carolina, USA
KOGB 232200Z 2322/2418 09007KT 2SM -RA BR SCT015 BKN025 OVC040 FM240800 17006KT 2SM BR OVC004 FM241600 22008KT P6SM BKN015
Issued Valid From Valid To
Apr-23 @ 22:00 UTC
(an hour ago)
Apr-23 @ 22:00 UTC
(an hour ago)
Apr-24 @ 18:00 UTC
(in 19 hours)
Apr-23 @ 22:00 to Apr-24 @ 08:00
KOGB 232200Z 2322/2418 09007KT 2SM -RA BR SCT015 BKN025 OVC040
Wind Visibility Clouds Conditions
90° at 7 knots 2 miles
  • Scattered at 1,500' AGL
  • Broken at 2,500' AGL
  • Overcast at 4,000' AGL
  • Light Rain
  • Mist
From Apr-24 @ 08:00 to Apr-24 @ 16:00
FM240800 17006KT 2SM BR OVC004
Wind Visibility Clouds Conditions
170° at 6 knots 2 miles
  • Overcast at 400' AGL
  • Mist
From Apr-24 @ 16:00 to Apr-24 @ 18:00
FM241600 22008KT P6SM BKN015
Wind Visibility Clouds
220° at 8 knots Greater than 6 miles
  • Broken at 1,500' AGL
KOGB 232200Z 2322/2418 09007KT 2SM -RA BR SCT015 BKN025 OVC040 FM240800 17006KT 2SM BR OVC004 FM241600 22008KT P6SM BKN015
Issued Apr-23 @ 22:00 UTC
(an hour ago)
Valid From Apr-23 @ 22:00 UTC
(an hour ago)
Valid To Apr-24 @ 18:00 UTC
(in 19 hours)
Apr-23 @ 22:00 - Apr-24 @ 08:00
Wind Visibility
90° at 7 knots 2 miles
Clouds
  • Scattered at 1,500' AGL
  • Broken at 2,500' AGL
  • Overcast at 4,000' AGL
Conditions
  • Light Rain
  • Mist
From Apr-24 @ 08:00 - Apr-24 @ 16:00
Wind Visibility
170° at 6 knots 2 miles
Clouds
  • Overcast at 400' AGL
Conditions
  • Mist
From Apr-24 @ 16:00 - Apr-24 @ 18:00
Wind Visibility
220° at 8 knots Greater than 6 miles
Clouds
  • Broken at 1,500' AGL